Flight Track Log - Related Links

Times and Time Zones

All times are in EDT time to prevent confusion due to time zone crossing. See the N498QS flight status page for this flight to view local times or setup timezone preferences in your user account.

Time Position Orientation Groundspeed Altitude Reporting Facility
EDT Latitude Longitude Course Direction KTS MPH feet Rate Location/Type
Sat 08:57:36 PM 43.1667 -79.9000 228° Southwest 160 184 1,200  Level Toronto Center
Sat 08:58:36 PM 43.1333 -79.9500 228° Southwest 160 184 3,500 2,250 Climbing Toronto Center
Sat 08:59:36 PM 43.0667 -79.9333 170° South 250 288 5,700 2,950 Climbing Toronto Center
Sat 09:00:36 PM 43.0667 -79.8000 90° East 320 368 9,400 2,850 Climbing Toronto Center
Sat 09:01:36 PM 43.0500 -79.6833 101° East 340 391 11,400 2,550 Climbing Toronto Center
Sat 09:02:36 PM 43.0333 -79.5167 98° East 390 449 14,500 2,600 Climbing Toronto Center
Sat 09:03:36 PM 43.0167 -79.3833 100° East 410 472 16,600 2,050 Climbing Toronto Center
Sat 09:04:36 PM 42.9833 -79.2167 105° East 420 483 18,600 2,000 Climbing Toronto Center
Sat 09:05:36 PM 42.9667 -79.0333 97° East 430 495 20,600 1,750 Climbing Toronto Center
Sat 09:06:36 PM 42.9500 -78.8833 99° East 440 506 22,100 1,250 Climbing Toronto Center
Sat 09:07:36 PM 42.9333 -78.7167 98° East 450 518 23,100 1,105 Climbing Toronto Center
Sat 09:07:52 PM 42.9347 -78.6975 84° East 447 514 23,500 1,342 Climbing Cleveland Center
Sat 09:08:52 PM 42.8819 -78.5431 115° Southeast 447 514 24,800 1,250 Climbing Cleveland Center
Sat 09:09:52 PM 42.8086 -78.4042 126° Southeast 441 507 26,000 1,100 Climbing Cleveland Center
Sat 09:10:52 PM 42.7414 -78.2736 125° Southeast 458 527 27,000 500 Climbing Cleveland Center
Sat 09:11:52 PM 42.6697 -78.1322 125° Southeast 458 527 27,000  Level Cleveland Center
Sat 09:12:52 PM 42.5981 -77.9939 125° Southeast 458 527 27,000  Level Cleveland Center
Sat 09:14:36 PM 42.4500 -77.6833 123° Southeast 460 529 27,000  Level Toronto Center
Sat 09:15:36 PM 42.3833 -77.5500 124° Southeast 460 529 27,000  Level Toronto Center
Sat 09:16:36 PM 42.3167 -77.4500 132° Southeast 460 529 27,000  Level Toronto Center
Sat 09:17:36 PM 42.1833 -77.3167 143° Southeast 460 529 27,000  Level Toronto Center
Sat 09:18:36 PM 42.1000 -77.2333 143° Southeast 450 518 27,000  Level Toronto Center
Sat 09:18:52 PM 42.0953 -77.2325 173° South 459 528 27,000 -1,154 Level New York Center
Sat 09:19:54 PM 41.9967 -77.1308 143° Southeast 459 528 25,500 -7,500 Descending New York Center
Sat 09:20:52 PM 41.8922 -77.0206 142° Southeast 449 517 12,000 -3,176 Descending New York Center
Sat 09:21:53 PM 41.8014 -76.9256 142° Southeast 431 496 19,200 2,066 Climbing New York Center
Sat 09:22:54 PM 41.7122 -76.8342 143° Southeast 420 483 16,200 -2,622 Descending New York Center
Sat 09:23:52 PM 41.6314 -76.7489 142° Southeast 407 468 14,000 -2,085 Descending New York Center
Sat 09:24:52 PM 41.5561 -76.6703 142° Southeast 390 449 12,100 -1,041 Descending New York Center
Sat 09:25:53 PM 41.4689 -76.5794 142° Southeast 378 435 11,900 -99 Descending New York Center
Sat 09:26:53 PM 41.3853 -76.4975 144° Southeast 378 435 11,900  Level New York Center
Sat 09:27:52 PM 41.3058 -76.4164 143° Southeast 373 429 11,900  Level New York Center
Sat 09:28:52 PM 41.2344 -76.3414 142° Southeast 373 429 11,900 50 Level New York Center
Sat 09:29:52 PM 41.1431 -76.2483 143° Southeast 373 429 12,000 50 Climbing New York Center
Sat 09:30:53 PM 41.0636 -76.1650 142° Southeast 373 429 12,000  Level New York Center
Sat 09:31:52 PM 40.9817 -76.0842 143° Southeast 373 429 12,000  Level New York Center
Sat 09:32:53 PM 40.9100 -76.0125 143° Southeast 366 421 12,000  Level New York Center
Sat 09:33:52 PM 40.8261 -75.9267 142° Southeast 373 429 12,000 -504 Level New York Center
Sat 09:34:52 PM 40.7442 -75.8464 143° Southeast 349 402 11,000 -1,366 Descending New York Center
Sat 09:35:55 PM 40.6764 -75.7786 143° Southeast 323 372 9,200 -1,750 Descending New York Center
Sat 09:36:52 PM 40.6125 -75.7111 141° Southeast 304 350 7,500 -1,795 Descending New York Center
Sat 09:37:52 PM 40.5806 -75.6267 116° Southeast 287 330 5,700 -1,250 Descending New York Center
Sat 09:38:52 PM 40.5722 -75.5194 96° East 287 330 5,000 -347 Descending New York Center
Sat 09:39:53 PM 40.5619 -75.4122 97° East 287 330 5,000  Level New York Center
Sat 09:40:52 PM 40.5281 -75.3200 116° Southeast 279 321 5,000  Level New York Center
Sat 09:41:54 PM 40.4858 -75.2297 122° Southeast 279 321 5,000 -50 Level New York Center
Sat 09:42:53 PM 40.4411 -75.1369 122° Southeast 284 327 4,900 -504 Descending New York Center
Sat 09:43:53 PM 40.4028 -75.0528 121° Southeast 279 321 4,000 -950 Descending New York Center
Sat 09:44:53 PM 40.3764 -74.9719 113° Southeast 254 292 3,000 -504 Descending New York Center
Sat 09:45:52 PM 40.3750 -74.8956 91° East 229 264 3,000 -151 Level New York Center
Sat 09:46:52 PM 40.3547 -74.8181 109° East 210 242 2,700 -550 Descending New York Center
Sat 09:47:52 PM 40.3333 -74.7681 119° Southeast 183 211 1,900 -900 Descending New York Center
Sat 09:48:52 PM 40.3039 -74.7772 193° South 115 132 900 -744 Descending New York Center
Sat 09:49:53 PM 40.2783 -74.7947 208° Southwest 110 127 400 3,984 Descending New York Center
Sat 09:50:54 PM 40.2528 -74.8150 211° Southwest 110 127 9,000 8,459 Climbing New York Center

Login

Don't have an account? Register now (free) for customized features, flight alerts, and more!